Time;durP1;ratioP1;P1;durP2;ratioP2;P2;SDS_P1;SDS_P2;PMS_P1;PMS_P2;Temp;Humidity;BMP_temperature;BMP_pressure;BME280_temperature;BME280_humidity;BME280_pressure;Samples;Min_cycle;Max_cycle;Signal;HPM_P1;HPM_P2
2022/09/07 00:01:18;;;;;;;2.65;1.48;;;19.30;99.90;;;;;;5052981;28;20178;-51
2022/09/07 00:03:44;;;;;;;2.75;1.63;;;19.20;99.90;;;;;;5052971;28;20185;-51
2022/09/07 00:06:11;;;;;;;2.47;1.60;;;19.30;99.90;;;;;;5052743;28;20174;-51
2022/09/07 00:08:39;;;;;;;2.47;1.58;;;19.30;99.90;;;;;;5052952;28;20159;-51
2022/09/07 00:11:09;;;;;;;1.95;1.30;;;19.40;99.90;;;;;;5053262;28;20202;-51
2022/09/07 00:13:37;;;;;;;3.22;1.35;;;19.40;99.90;;;;;;5053255;28;20171;-51
2022/09/07 00:16:08;;;;;;;6.85;1.80;;;19.60;99.90;;;;;;5053085;28;20215;-51
2022/09/07 00:18:34;;;;;;;2.92;1.50;;;19.60;99.90;;;;;;5053090;28;20192;-51
2022/09/07 00:21:02;;;;;;;3.47;1.48;;;19.70;99.90;;;;;;5052724;28;20170;-51
2022/09/07 00:23:30;;;;;;;3.22;1.73;;;19.60;99.90;;;;;;5052696;28;20205;-51
2022/09/07 00:26:08;;;;;;;3.47;1.60;;;19.70;99.90;;;;;;5052902;28;20171;-51
2022/09/07 00:28:34;;;;;;;2.65;1.50;;;19.90;99.90;;;;;;5052956;28;20174;-52
2022/09/07 00:31:00;;;;;;;2.22;1.40;;;19.90;99.90;;;;;;5052432;28;20209;-51
2022/09/07 00:33:26;;;;;;;5.55;1.50;;;19.90;99.90;;;;;;5052513;28;20167;-52
2022/09/07 00:35:53;;;;;;;4.25;2.08;;;20.00;99.90;;;;;;5052499;28;20254;-51
2022/09/07 00:38:18;;;;;;;1.98;1.70;;;20.00;99.90;;;;;;5052480;28;20177;-51
2022/09/07 00:40:44;;;;;;;3.00;1.63;;;20.00;99.90;;;;;;5052546;28;20167;-51
2022/09/07 00:43:28;;;;;;;3.90;1.88;;;20.10;99.90;;;;;;5052343;28;20192;-51
2022/09/07 00:45:54;;;;;;;7.40;2.20;;;20.00;99.90;;;;;;5052340;28;20185;-51
2022/09/07 00:48:23;;;;;;;3.08;1.60;;;20.10;99.90;;;;;;5052341;28;20638;-52
2022/09/07 00:50:59;;;;;;;2.13;1.40;;;20.10;99.90;;;;;;5051448;28;20202;-51
2022/09/07 00:53:33;;;;;;;4.28;1.90;;;20.00;99.90;;;;;;5052075;28;20660;-51
2022/09/07 00:56:00;;;;;;;3.90;1.80;;;19.80;99.90;;;;;;5052170;28;20653;-52
2022/09/07 00:58:26;;;;;;;3.35;1.65;;;19.80;99.90;;;;;;5052047;28;20163;-52
2022/09/07 01:00:54;;;;;;;3.50;1.70;;;19.90;99.90;;;;;;5052185;28;20171;-52
2022/09/07 01:03:26;;;;;;;6.55;2.10;;;20.00;99.90;;;;;;5052253;28;20514;-51
2022/09/07 01:06:04;;;;;;;2.38;1.40;;;20.00;99.90;;;;;;5052007;28;20642;-52
2022/09/07 01:08:30;;;;;;;3.42;1.70;;;20.20;99.90;;;;;;5051891;28;20177;-51
2022/09/07 01:10:57;;;;;;;4.93;1.80;;;20.10;99.90;;;;;;5051805;28;20673;-51
2022/09/07 01:13:23;;;;;;;3.92;1.73;;;20.10;99.90;;;;;;5051804;28;20198;-52
2022/09/07 01:16:06;;;;;;;3.17;1.52;;;20.00;99.90;;;;;;5051687;28;20407;-52
2022/09/07 01:19:01;;;;;;;5.13;1.70;;;20.10;99.90;;;;;;5052175;28;20174;-52
2022/09/07 01:21:33;;;;;;;2.90;1.80;;;20.10;99.90;;;;;;5051782;28;20163;-52
2022/09/07 01:24:08;;;;;;;4.28;1.67;;;20.00;99.90;;;;;;5051723;28;20167;-52
2022/09/07 01:26:47;;;;;;;2.55;1.98;;;20.00;99.90;;;;;;5052040;28;20189;-52
2022/09/07 01:29:47;;;;;;;2.17;1.92;;;20.00;99.90;;;;;;5051777;28;20169;-52
2022/09/07 01:32:33;;;;;;;3.58;1.70;;;20.10;99.90;;;;;;5033192;28;20198;-51
2022/09/07 01:35:06;;;;;;;3.72;2.28;;;20.10;99.90;;;;;;5051226;28;20541;-52
2022/09/07 01:37:49;;;;;;;4.20;1.70;;;20.10;99.90;;;;;;5051918;28;20166;-52
2022/09/07 01:40:23;;;;;;;5.60;1.85;;;20.00;99.90;;;;;;5051634;28;20158;-52
2022/09/07 01:42:54;;;;;;;2.95;1.75;;;20.00;99.90;;;;;;5051614;28;20162;-51
2022/09/07 01:45:26;;;;;;;3.63;2.10;;;20.00;99.90;;;;;;5051483;28;20166;-52
2022/09/07 01:47:55;;;;;;;5.47;2.17;;;19.80;99.90;;;;;;5051467;28;20232;-51
2022/09/07 01:50:51;;;;;;;5.50;2.30;;;19.70;99.90;;;;;;5051397;28;20554;-51
2022/09/07 01:53:23;;;;;;;5.90;2.60;;;19.70;99.90;;;;;;5051375;28;20197;-51
2022/09/07 01:56:03;;;;;;;4.72;2.40;;;19.70;99.90;;;;;;5051715;28;20182;-51
2022/09/07 01:58:35;;;;;;;4.28;2.65;;;19.60;99.90;;;;;;5051335;28;20173;-51
2022/09/07 02:01:24;;;;;;;4.45;2.45;;;19.50;99.90;;;;;;5052286;28;20182;-52
2022/09/07 02:04:07;;;;;;;3.90;2.42;;;19.60;99.90;;;;;;5055347;28;20308;-51
2022/09/07 02:06:51;;;;;;;5.78;2.50;;;19.50;99.90;;;;;;5055684;28;20200;-51
2022/09/07 02:09:26;;;;;;;5.80;3.00;;;19.60;99.90;;;;;;5055303;28;20174;-51
2022/09/07 02:11:52;;;;;;;3.05;2.70;;;19.70;99.90;;;;;;5055166;28;20277;-52
2022/09/07 02:14:23;;;;;;;5.25;2.47;;;19.70;99.90;;;;;;5054984;28;20250;-52
2022/09/07 02:16:59;;;;;;;3.15;2.80;;;19.60;99.90;;;;;;5055370;28;20257;-52
2022/09/07 02:19:31;;;;;;;5.70;2.90;;;19.60;99.90;;;;;;5055087;28;20251;-51
2022/09/07 02:22:02;;;;;;;6.82;2.95;;;19.70;99.90;;;;;;5054961;28;20171;-51
2022/09/07 02:24:39;;;;;;;5.10;2.92;;;19.70;99.90;;;;;;5055021;28;20173;-51
2022/09/07 02:27:13;;;;;;;6.70;3.80;;;19.70;99.90;;;;;;5055030;28;20253;-52
2022/09/07 02:29:39;;;;;;;6.63;3.35;;;19.80;99.90;;;;;;5054958;28;20166;-52
2022/09/07 02:32:05;;;;;;;4.63;3.67;;;19.70;99.90;;;;;;5055249;28;20539;-51
2022/09/07 02:34:31;;;;;;;4.85;3.85;;;19.70;99.90;;;;;;5055157;28;20632;-54
2022/09/07 02:36:59;;;;;;;5.40;4.32;;;19.70;99.90;;;;;;5054802;28;20167;-50
2022/09/07 02:39:25;;;;;;;4.20;3.80;;;19.80;99.90;;;;;;5054644;28;20163;-50
2022/09/07 02:41:50;;;;;;;6.18;4.05;;;19.70;99.90;;;;;;5053322;28;20186;-50
2022/09/07 02:44:31;;;;;;;5.07;4.22;;;19.80;99.90;;;;;;5054788;28;20197;-50
2022/09/07 02:47:15;;;;;;;7.53;5.00;;;19.70;99.90;;;;;;5054629;28;20166;-50
2022/09/07 02:49:50;;;;;;;6.53;4.25;;;19.70;99.90;;;;;;5054408;28;20190;-51
2022/09/07 02:52:30;;;;;;;7.35;5.53;;;19.60;99.90;;;;;;5054524;28;20182;-51
2022/09/07 02:55:21;;;;;;;5.35;4.82;;;19.50;99.90;;;;;;5054481;28;20241;-51
2022/09/07 02:58:30;;;;;;;5.65;5.03;;;19.50;99.90;;;;;;5054393;28;20269;-50
2022/09/07 03:01:11;;;;;;;8.38;6.05;;;19.40;99.90;;;;;;5054330;28;20664;-51
2022/09/07 03:04:04;;;;;;;10.65;6.13;;;19.30;99.90;;;;;;5054207;28;20166;-51
2022/09/07 03:06:35;;;;;;;8.48;5.93;;;19.40;99.90;;;;;;5054578;28;20163;-51
2022/09/07 03:09:06;;;;;;;8.32;6.20;;;19.40;99.90;;;;;;5054519;28;20182;-51
2022/09/07 03:11:35;;;;;;;11.75;6.38;;;19.30;99.90;;;;;;5054333;28;20206;-50
2022/09/07 03:14:32;;;;;;;10.20;8.85;;;19.10;99.90;;;;;;5053587;28;20195;-50
2022/09/07 03:16:59;;;;;;;15.75;11.70;;;19.00;99.90;;;;;;5049697;28;20210;-51
2022/09/07 03:19:25;;;;;;;17.70;12.35;;;19.00;99.90;;;;;;5053939;28;20167;-51
2022/09/07 03:21:51;;;;;;;16.80;12.82;;;19.00;99.90;;;;;;5054130;28;20171;-51
2022/09/07 03:24:16;;;;;;;16.02;12.43;;;19.00;99.90;;;;;;5053835;28;20641;-51
2022/09/07 03:26:45;;;;;;;17.35;12.23;;;19.00;99.90;;;;;;5053783;28;20656;-51
2022/09/07 03:29:10;;;;;;;16.25;12.90;;;19.00;99.90;;;;;;5054105;28;20174;-51
2022/09/07 03:31:36;;;;;;;17.40;13.38;;;19.00;99.90;;;;;;5053708;28;20225;-51
2022/09/07 03:34:02;;;;;;;17.35;13.57;;;19.00;99.90;;;;;;5053990;28;20162;-51
2022/09/07 03:36:29;;;;;;;20.05;14.95;;;19.00;99.90;;;;;;5053619;28;20265;-51
2022/09/07 03:38:58;;;;;;;18.95;14.68;;;18.90;99.90;;;;;;5053606;28;20208;-51
2022/09/07 03:41:24;;;;;;;18.90;15.48;;;18.90;99.90;;;;;;5053436;28;20661;-51
2022/09/07 03:43:50;;;;;;;18.75;15.63;;;18.80;99.90;;;;;;5053509;28;20170;-51
2022/09/07 03:46:18;;;;;;;16.88;14.77;;;18.80;99.90;;;;;;5053573;28;20622;-51
2022/09/07 03:48:45;;;;;;;17.42;15.30;;;18.80;99.90;;;;;;5053319;28;20162;-51
2022/09/07 03:51:11;;;;;;;21.83;14.85;;;18.80;99.90;;;;;;5053232;28;20209;-50
2022/09/07 03:53:40;;;;;;;18.80;14.43;;;18.80;99.90;;;;;;5053302;28;20167;-50
2022/09/07 03:56:09;;;;;;;20.05;15.20;;;18.80;99.90;;;;;;5053259;28;20177;-51
2022/09/07 03:58:35;;;;;;;18.10;15.52;;;18.80;99.90;;;;;;5053129;28;20170;-50
2022/09/07 04:01:09;;;;;;;16.88;14.88;;;18.70;99.90;;;;;;5053478;28;20258;-51
2022/09/07 04:03:35;;;;;;;17.63;14.15;;;18.60;99.90;;;;;;5053255;28;20198;-51
2022/09/07 04:06:02;;;;;;;19.25;14.13;;;18.70;99.90;;;;;;5053305;28;20232;-51
2022/09/07 04:08:29;;;;;;;16.38;13.98;;;18.60;99.90;;;;;;5053242;28;20170;-51
2022/09/07 04:10:56;;;;;;;15.88;12.30;;;18.60;99.90;;;;;;5052923;28;20198;-51
2022/09/07 04:13:23;;;;;;;18.17;12.77;;;18.60;99.90;;;;;;5052946;28;20194;-51
2022/09/07 04:15:48;;;;;;;17.10;11.82;;;18.50;99.90;;;;;;5052820;28;20708;-50
2022/09/07 04:18:14;;;;;;;12.07;10.27;;;18.60;99.90;;;;;;5052802;28;20163;-50
2022/09/07 04:20:40;;;;;;;10.98;9.77;;;18.60;99.90;;;;;;5052832;28;20181;-50
2022/09/07 04:23:05;;;;;;;12.95;9.93;;;18.50;99.90;;;;;;5052860;28;20162;-50
2022/09/07 04:25:31;;;;;;;11.05;9.27;;;18.50;99.90;;;;;;5053030;28;20181;-51
2022/09/07 04:27:57;;;;;;;8.93;7.95;;;18.50;99.90;;;;;;5052705;28;20162;-51
2022/09/07 04:30:22;;;;;;;9.95;7.88;;;18.40;99.90;;;;;;5052765;28;20232;-51
2022/09/07 04:32:48;;;;;;;10.05;7.85;;;18.40;99.90;;;;;;5052730;28;20159;-51
2022/09/07 04:35:14;;;;;;;8.75;7.82;;;18.40;99.90;;;;;;5052495;28;20209;-51
2022/09/07 04:37:40;;;;;;;10.32;8.15;;;18.40;99.90;;;;;;5052734;28;20232;-51
2022/09/07 04:40:06;;;;;;;11.82;8.23;;;18.40;99.90;;;;;;5052600;28;20167;-51
2022/09/07 04:42:31;;;;;;;9.98;7.60;;;18.40;99.90;;;;;;5052663;28;20173;-52
2022/09/07 04:44:57;;;;;;;13.27;8.88;;;18.50;99.90;;;;;;5052323;28;20569;-51
2022/09/07 04:47:22;;;;;;;11.48;8.77;;;18.40;99.90;;;;;;5052216;28;20163;-51
2022/09/07 04:49:52;;;;;;;13.00;9.13;;;18.40;99.90;;;;;;5052122;28;20228;-51
2022/09/07 04:52:18;;;;;;;14.40;10.02;;;18.30;99.90;;;;;;5052420;28;20171;-51
2022/09/07 04:54:48;;;;;;;12.93;9.20;;;18.20;99.90;;;;;;5052139;28;20173;-51
2022/09/07 04:57:14;;;;;;;12.02;8.70;;;18.40;99.90;;;;;;5051914;28;20657;-51
2022/09/07 04:59:39;;;;;;;13.35;8.38;;;18.20;99.90;;;;;;5051839;28;20171;-51
2022/09/07 05:02:05;;;;;;;14.55;10.15;;;18.20;99.90;;;;;;5052008;28;20181;-50
2022/09/07 05:04:33;;;;;;;10.90;8.45;;;18.20;99.90;;;;;;5052487;28;20167;-50
2022/09/07 05:06:59;;;;;;;11.00;9.32;;;18.00;99.90;;;;;;5052135;28;20204;-50
2022/09/07 05:09:24;;;;;;;11.90;8.65;;;18.20;99.90;;;;;;5051862;28;20630;-50
2022/09/07 05:11:50;;;;;;;15.40;10.05;;;18.10;99.90;;;;;;5051712;28;20229;-51
2022/09/07 05:14:15;;;;;;;10.80;8.98;;;18.20;99.90;;;;;;5051704;28;20162;-51
2022/09/07 05:16:41;;;;;;;16.02;10.10;;;18.20;99.90;;;;;;5051951;28;20178;-52
2022/09/07 05:19:10;;;;;;;13.30;9.55;;;18.30;99.90;;;;;;5051508;28;20254;-52
2022/09/07 05:21:36;;;;;;;13.73;9.98;;;18.30;99.90;;;;;;5051623;28;20162;-51
2022/09/07 05:24:03;;;;;;;14.18;9.43;;;18.40;99.90;;;;;;5052090;28;20225;-52
2022/09/07 05:26:31;;;;;;;10.45;8.70;;;18.40;99.90;;;;;;5051544;28;20221;-51
2022/09/07 05:29:01;;;;;;;12.50;9.25;;;18.60;99.90;;;;;;5051431;28;20178;-51
2022/09/07 05:31:27;;;;;;;11.70;8.73;;;18.50;99.90;;;;;;5051782;28;20210;-51
2022/09/07 05:33:53;;;;;;;12.77;8.20;;;18.60;99.90;;;;;;5051338;28;20169;-51
2022/09/07 05:36:20;;;;;;;11.35;8.90;;;18.50;99.90;;;;;;5053523;28;20171;-51
2022/09/07 05:38:46;;;;;;;14.43;9.43;;;18.60;99.90;;;;;;5058156;28;20224;-51
2022/09/07 05:41:20;;;;;;;13.60;9.68;;;18.70;99.90;;;;;;5058118;28;20249;-51
2022/09/07 05:43:46;;;;;;;10.93;9.25;;;18.80;99.90;;;;;;5058075;28;20231;-51
2022/09/07 05:46:12;;;;;;;12.30;9.43;;;18.80;99.90;;;;;;5058084;28;20622;-51
2022/09/07 05:48:38;;;;;;;12.65;9.10;;;18.80;99.90;;;;;;5055629;28;20163;-52
2022/09/07 05:51:04;;;;;;;12.65;9.38;;;18.90;99.90;;;;;;5056064;28;20666;-53
2022/09/07 05:53:30;;;;;;;12.25;8.30;;;18.90;99.90;;;;;;5056389;28;20171;-52
2022/09/07 05:56:00;;;;;;;14.43;9.27;;;19.00;99.90;;;;;;5056128;28;20170;-52
2022/09/07 05:58:27;;;;;;;12.57;9.27;;;19.10;99.90;;;;;;5056206;28;20170;-52
2022/09/07 06:01:05;;;;;;;11.93;8.70;;;19.10;99.90;;;;;;5056047;28;20566;-52
2022/09/07 06:03:31;;;;;;;10.40;8.48;;;19.20;99.90;;;;;;5057100;28;20158;-51
2022/09/07 06:06:04;;;;;;;11.38;9.43;;;19.30;99.90;;;;;;5058011;28;20576;-52
2022/09/07 06:08:31;;;;;;;10.70;8.73;;;19.30;99.90;;;;;;5058674;28;20170;-52
2022/09/07 06:10:57;;;;;;;11.30;8.60;;;19.40;99.90;;;;;;5057940;28;20213;-52
2022/09/07 06:13:23;;;;;;;11.95;8.10;;;19.40;99.90;;;;;;5057989;28;20178;-52
2022/09/07 06:15:49;;;;;;;10.07;8.10;;;19.50;99.90;;;;;;5057809;28;20218;-52
2022/09/07 06:18:14;;;;;;;9.48;6.85;;;19.50;99.90;;;;;;5057952;28;20163;-52
2022/09/07 06:20:40;;;;;;;6.93;6.22;;;19.50;99.90;;;;;;5057940;28;20571;-52
2022/09/07 06:23:06;;;;;;;9.65;6.50;;;19.60;99.90;;;;;;5057737;28;20174;-52
2022/09/07 06:25:32;;;;;;;10.02;7.10;;;19.50;99.90;;;;;;5058194;28;20170;-52
2022/09/07 06:27:59;;;;;;;9.65;5.93;;;19.60;99.90;;;;;;5058354;28;20618;-52
2022/09/07 06:30:24;;;;;;;16.58;6.70;;;19.50;99.90;;;;;;5057707;28;20240;-52
2022/09/07 06:32:50;;;;;;;8.48;6.70;;;19.60;99.90;;;;;;5057816;28;20519;-52
2022/09/07 06:35:16;;;;;;;7.50;6.78;;;19.70;99.90;;;;;;5056828;28;20228;-52
2022/09/07 06:37:42;;;;;;;9.57;7.22;;;19.70;99.90;;;;;;5056459;28;20625;-52
2022/09/07 06:40:09;;;;;;;7.75;6.90;;;19.90;99.90;;;;;;5057895;28;20204;-52
2022/09/07 06:42:35;;;;;;;10.57;7.30;;;19.90;99.90;;;;;;5057745;28;20173;-51
2022/09/07 06:45:01;;;;;;;12.48;6.97;;;20.00;99.90;;;;;;5057914;28;20182;-52
2022/09/07 06:47:27;;;;;;;9.27;7.07;;;20.10;99.90;;;;;;5056178;28;20167;-51
2022/09/07 06:49:52;;;;;;;9.70;6.63;;;20.30;99.90;;;;;;5054062;28;20206;-51
2022/09/07 06:52:18;;;;;;;10.75;7.22;;;20.40;99.90;;;;;;5054385;28;20248;-51
2022/09/07 06:54:44;;;;;;;8.23;7.07;;;20.50;99.90;;;;;;5054329;28;20258;-51
2022/09/07 06:57:09;;;;;;;13.55;8.07;;;20.50;99.90;;;;;;5054317;28;20170;-51
2022/09/07 06:59:35;;;;;;;12.50;8.13;;;20.30;99.90;;;;;;5054219;28;20167;-51
2022/09/07 07:02:01;;;;;;;11.20;6.82;;;20.30;99.90;;;;;;5054792;28;20171;-51
2022/09/07 07:04:26;;;;;;;10.65;6.45;;;20.40;99.90;;;;;;5054440;28;20166;-51
2022/09/07 07:06:52;;;;;;;8.35;5.85;;;20.70;99.90;;;;;;5053927;28;20163;-51
2022/09/07 07:09:17;;;;;;;6.25;4.65;;;20.70;99.90;;;;;;5054037;28;20163;-51
2022/09/07 07:11:46;;;;;;;10.18;4.63;;;20.80;99.90;;;;;;5053917;28;20202;-52
2022/09/07 07:14:15;;;;;;;9.60;5.00;;;21.10;99.90;;;;;;5053778;28;20212;-51
2022/09/07 07:16:40;;;;;;;8.40;4.95;;;21.30;99.90;;;;;;5053869;28;20209;-52
2022/09/07 07:19:06;;;;;;;10.25;5.28;;;21.30;99.90;;;;;;5053829;28;20634;-52
2022/09/07 07:21:31;;;;;;;8.73;4.60;;;21.30;99.90;;;;;;5054405;28;20224;-52
2022/09/07 07:23:57;;;;;;;8.60;4.88;;;21.20;99.90;;;;;;5053729;28;20178;-52
2022/09/07 07:26:25;;;;;;;5.13;3.40;;;21.10;99.90;;;;;;5053701;28;20238;-51
2022/09/07 07:28:53;;;;;;;5.57;2.40;;;21.10;99.90;;;;;;5053958;28;20555;-51
2022/09/07 07:31:21;;;;;;;4.90;3.00;;;21.00;99.90;;;;;;5053825;28;20207;-52
2022/09/07 07:33:47;;;;;;;2.90;2.42;;;20.90;99.90;;;;;;5053660;28;20566;-51
2022/09/07 07:36:18;;;;;;;4.82;2.50;;;20.80;99.90;;;;;;5053873;28;20596;-58
2022/09/07 07:38:46;;;;;;;5.57;2.80;;;20.60;99.90;;;;;;5053546;28;20520;-51
2022/09/07 07:41:14;;;;;;;4.93;2.53;;;20.70;99.90;;;;;;5053613;28;20171;-50
2022/09/07 07:43:39;;;;;;;3.65;2.55;;;20.90;99.90;;;;;;5053459;28;20190;-51
2022/09/07 07:46:05;;;;;;;4.75;2.90;;;21.00;99.90;;;;;;5053477;28;20207;-52
2022/09/07 07:48:33;;;;;;;5.32;3.03;;;21.00;99.90;;;;;;5054031;28;20167;-51
2022/09/07 07:51:04;;;;;;;7.22;3.10;;;21.10;99.90;;;;;;5053612;28;20204;-51
2022/09/07 07:53:33;;;;;;;3.08;2.60;;;21.20;99.90;;;;;;5053610;28;20183;-51
2022/09/07 07:55:59;;;;;;;2.58;2.08;;;21.40;99.90;;;;;;5053757;28;20562;-51
2022/09/07 07:58:29;;;;;;;1.88;1.77;;;21.40;99.90;;;;;;5051985;28;20179;-51
2022/09/07 08:00:59;;;;;;;4.72;1.70;;;21.60;99.90;;;;;;5051592;28;20213;-51
2022/09/07 08:03:24;;;;;;;3.65;1.80;;;21.80;99.90;;;;;;5053048;28;20543;-51
2022/09/07 08:05:51;;;;;;;4.68;1.70;;;21.70;99.90;;;;;;5053062;28;20167;-51
2022/09/07 08:08:17;;;;;;;1.88;1.60;;;21.60;99.90;;;;;;5053367;28;20171;-52
2022/09/07 08:10:42;;;;;;;2.92;1.73;;;21.80;99.90;;;;;;5052906;28;20583;-51
2022/09/07 08:13:08;;;;;;;2.13;1.90;;;21.60;99.90;;;;;;5052853;28;20163;-51
2022/09/07 08:15:42;;;;;;;1.85;1.75;;;21.60;99.90;;;;;;5052798;28;20214;-51
2022/09/07 08:18:07;;;;;;;2.30;1.98;;;21.60;99.90;;;;;;5052728;28;20170;-51
2022/09/07 08:20:33;;;;;;;4.00;1.80;;;21.80;99.90;;;;;;5052715;28;20177;-51
2022/09/07 08:22:58;;;;;;;2.50;1.63;;;21.70;99.90;;;;;;5053081;28;20257;-51
2022/09/07 08:25:24;;;;;;;2.80;1.90;;;21.80;99.90;;;;;;5052899;28;20181;-51
2022/09/07 08:27:50;;;;;;;2.50;1.48;;;21.80;99.90;;;;;;5052810;28;20166;-51
2022/09/07 08:30:15;;;;;;;1.90;1.65;;;22.10;99.90;;;;;;5052504;28;20194;-52
2022/09/07 08:32:41;;;;;;;2.35;1.60;;;21.90;99.90;;;;;;5052495;28;20171;-50
2022/09/07 08:35:07;;;;;;;2.15;1.95;;;21.90;99.90;;;;;;5052427;28;20654;-50
2022/09/07 08:37:32;;;;;;;2.05;1.58;;;22.10;99.90;;;;;;5052795;28;20253;-51
2022/09/07 08:39:58;;;;;;;3.47;1.77;;;23.60;99.90;;;;;;5052751;28;20171;-51
2022/09/07 08:42:39;;;;;;;2.35;1.95;;;22.30;99.90;;;;;;5052334;28;20174;-51
2022/09/07 08:45:23;;;;;;;5.40;2.05;;;22.60;99.90;;;;;;5052373;28;20163;-50
2022/09/07 08:47:51;;;;;;;3.63;1.92;;;22.80;99.90;;;;;;5052158;28;20258;-51
2022/09/07 08:50:42;;;;;;;2.97;1.52;;;23.10;99.90;;;;;;5052102;28;20325;-51
2022/09/07 08:53:19;;;;;;;2.97;1.60;;;23.00;99.90;;;;;;5052436;28;20202;-51
2022/09/07 08:55:57;;;;;;;3.67;1.58;;;22.70;99.90;;;;;;5050988;28;20185;-51
2022/09/07 08:58:43;;;;;;;1.90;1.38;;;22.70;99.90;;;;;;5050868;28;20205;-51
2022/09/07 09:01:17;;;;;;;1.85;1.73;;;22.80;99.90;;;;;;5052048;28;20175;-50
2022/09/07 09:03:43;;;;;;;2.45;1.80;;;22.90;99.90;;;;;;5051493;28;20178;-50
2022/09/07 09:06:33;;;;;;;2.55;1.60;;;22.90;99.90;;;;;;5051880;28;20174;-50
2022/09/07 09:09:14;;;;;;;4.30;1.80;;;23.10;99.90;;;;;;5050941;28;20178;-50
2022/09/07 09:12:36;;;;;;;1.60;1.50;;;23.20;99.90;;;;;;5050956;28;20289;-51
2022/09/07 09:15:25;;;;;;;3.22;1.85;;;23.30;99.90;;;;;;5043695;28;20552;-51
2022/09/07 09:18:22;;;;;;;2.72;1.55;;;23.10;99.90;;;;;;5051742;28;20695;-50
2022/09/07 09:20:58;;;;;;;2.08;1.70;;;23.10;99.90;;;;;;5052095;28;20213;-51
2022/09/07 09:23:29;;;;;;;3.40;1.77;;;23.70;99.90;;;;;;5051701;28;20166;-51
2022/09/07 09:25:58;;;;;;;1.92;1.63;;;23.60;99.90;;;;;;5051786;28;20197;-51
2022/09/07 09:28:24;;;;;;;1.98;1.73;;;23.70;99.90;;;;;;5052033;28;20523;-51
2022/09/07 09:30:50;;;;;;;2.97;1.88;;;23.80;99.90;;;;;;5051636;28;20214;-51
2022/09/07 09:33:25;;;;;;;3.42;2.08;;;24.00;99.90;;;;;;5048489;28;20186;-51
2022/09/07 09:35:53;;;;;;;3.20;1.40;;;24.40;99.90;;;;;;5051293;28;20180;-52
2022/09/07 09:38:31;;;;;;;1.92;1.67;;;24.50;99.90;;;;;;5051671;28;20586;-51
2022/09/07 09:41:08;;;;;;;2.95;2.08;;;24.20;99.90;;;;;;5051938;28;20592;-51
2022/09/07 09:43:50;;;;;;;3.22;1.67;;;24.40;99.90;;;;;;5051594;28;20178;-51
2022/09/07 09:46:33;;;;;;;2.97;1.95;;;24.20;99.90;;;;;;5050225;28;20198;-51
2022/09/07 09:49:24;;;;;;;4.47;2.10;;;24.10;99.90;;;;;;5051751;28;20166;-51
2022/09/07 09:51:54;;;;;;;1.85;1.73;;;24.10;99.90;;;;;;5048532;28;20214;-51
2022/09/07 09:54:35;;;;;;;7.68;1.92;;;24.00;99.90;;;;;;5049865;28;20182;-51
2022/09/07 09:57:00;;;;;;;3.00;1.98;;;23.80;99.90;;;;;;5051706;28;20622;-52
2022/09/07 09:59:34;;;;;;;2.55;1.80;;;23.70;99.90;;;;;;5051673;28;20173;-51
2022/09/07 10:02:27;;;;;;;2.83;1.73;;;23.80;99.90;;;;;;5052154;28;20258;-52
2022/09/07 10:04:53;;;;;;;2.72;2.10;;;23.70;99.90;;;;;;5051469;28;20988;-51
2022/09/07 10:07:26;;;;;;;3.80;2.28;;;23.80;99.90;;;;;;5051340;28;20163;-52
2022/09/07 10:09:54;;;;;;;3.20;2.28;;;23.60;99.90;;;;;;5051004;28;20167;-52
2022/09/07 10:12:34;;;;;;;2.33;2.05;;;23.50;99.90;;;;;;5050499;28;20654;-52
2022/09/07 10:15:03;;;;;;;1.98;1.85;;;23.60;99.90;;;;;;5051539;28;20304;-51
2022/09/07 10:17:35;;;;;;;3.97;1.98;;;23.60;99.90;;;;;;5051517;28;20167;-51
2022/09/07 10:20:20;;;;;;;2.65;2.10;;;23.40;99.90;;;;;;5051843;28;20174;-51
2022/09/07 10:22:52;;;;;;;3.72;2.22;;;23.50;99.90;;;;;;5052644;28;20249;-51
2022/09/07 10:25:35;;;;;;;2.78;2.20;;;23.70;99.90;;;;;;5055062;28;20158;-52
2022/09/07 10:28:12;;;;;;;2.30;2.10;;;23.60;99.90;;;;;;5055601;28;20240;-51
2022/09/07 10:30:57;;;;;;;3.25;2.30;;;23.50;99.90;;;;;;5054544;28;20234;-52
2022/09/07 10:33:55;;;;;;;3.53;2.35;;;23.50;99.90;;;;;;5054873;28;20174;-51
2022/09/07 10:37:01;;;;;;;4.60;2.50;;;23.40;99.90;;;;;;5048705;28;20179;-50
2022/09/07 10:39:40;;;;;;;4.30;2.40;;;24.20;99.90;;;;;;5054572;28;20197;-51
2022/09/07 10:42:25;;;;;;;5.05;2.40;;;24.40;99.90;;;;;;5054935;28;20170;-51
2022/09/07 10:45:18;;;;;;;3.92;2.20;;;24.60;99.90;;;;;;5054634;28;20638;-51
2022/09/07 10:48:15;;;;;;;3.47;2.30;;;24.60;99.90;;;;;;5054639;28;20170;-51
2022/09/07 10:50:49;;;;;;;3.70;1.92;;;24.40;99.90;;;;;;5054417;28;20300;-52
2022/09/07 10:53:41;;;;;;;2.58;2.38;;;24.70;99.90;;;;;;5054402;28;20656;-51
2022/09/07 10:56:32;;;;;;;5.57;2.03;;;24.50;99.90;;;;;;5052645;28;20181;-51
2022/09/07 10:59:28;;;;;;;3.08;2.00;;;24.50;99.90;;;;;;5033989;28;20167;-51
2022/09/07 11:02:13;;;;;;;3.50;2.38;;;24.80;99.90;;;;;;5034527;28;20269;-51
2022/09/07 11:04:48;;;;;;;3.38;2.30;;;25.40;99.90;;;;;;5034350;28;20738;-51
2022/09/07 11:07:28;;;;;;;3.38;2.30;;;25.40;99.90;;;;;;5034090;28;20253;-51
2022/09/07 11:10:20;;;;;;;3.70;2.53;;;25.60;99.90;;;;;;5034089;28;20166;-51
2022/09/07 11:12:48;;;;;;;4.80;2.88;;;25.60;99.90;;;;;;5030386;28;20269;-50
2022/09/07 11:15:14;;;;;;;3.50;2.90;;;25.60;99.90;;;;;;5049859;28;20263;-50
2022/09/07 11:17:51;;;;;;;2.35;2.15;;;25.60;99.90;;;;;;5043235;28;20183;-50
2022/09/07 11:20:41;;;;;;;4.32;2.45;;;25.60;99.90;;;;;;5033997;28;20171;-51
2022/09/07 11:23:19;;;;;;;6.55;3.00;;;25.20;99.90;;;;;;5033964;28;20174;-50
2022/09/07 11:25:56;;;;;;;4.50;2.47;;;25.30;99.90;;;;;;5034018;28;20195;-51
2022/09/07 11:28:27;;;;;;;4.07;2.53;;;25.20;99.90;;;;;;5033687;28;20529;-51
2022/09/07 11:31:01;;;;;;;3.03;2.50;;;25.70;99.90;;;;;;5034061;28;20206;-52
2022/09/07 11:33:40;;;;;;;4.68;3.00;;;25.70;99.90;;;;;;5033336;28;20163;-52
2022/09/07 11:36:11;;;;;;;5.03;2.70;;;25.40;99.90;;;;;;5033551;28;20584;-51
2022/09/07 11:38:59;;;;;;;3.75;2.20;;;25.40;99.90;;;;;;5033703;28;20165;-51
2022/09/07 11:41:35;;;;;;;4.45;2.30;;;25.80;99.90;;;;;;5032594;28;20169;-49
2022/09/07 11:44:06;;;;;;;5.03;2.70;;;26.00;99.90;;;;;;5034002;28;20155;-50
2022/09/07 11:46:48;;;;;;;4.28;2.30;;;25.80;99.90;;;;;;5033737;28;20167;-50
2022/09/07 11:49:26;;;;;;;4.28;2.03;;;25.90;99.90;;;;;;5033382;28;20163;-49
2022/09/07 11:51:56;;;;;;;4.47;2.42;;;25.90;99.90;;;;;;5041064;28;20764;-49
2022/09/07 11:54:25;;;;;;;2.78;2.00;;;26.30;99.90;;;;;;5043551;28;20178;-49
2022/09/07 11:57:14;;;;;;;3.88;3.00;;;26.30;99.90;;;;;;5051312;28;20201;-50
2022/09/07 11:59:52;;;;;;;6.00;1.98;;;26.00;99.90;;;;;;5053069;28;20169;-50
2022/09/07 12:03:01;;;;;;;4.93;1.98;;;26.00;99.90;;;;;;5053235;28;20165;-49
2022/09/07 12:05:30;;;;;;;3.92;2.00;;;25.80;99.90;;;;;;5051470;28;20643;-50
2022/09/07 12:08:22;;;;;;;6.18;2.20;;;26.20;99.90;;;;;;5053009;28;20186;-50
2022/09/07 12:11:08;;;;;;;9.90;2.40;;;26.00;99.90;;;;;;5052644;28;20194;-49
2022/09/07 12:14:25;;;;;;;6.40;2.42;;;26.10;99.90;;;;;;5050765;28;20188;-50
2022/09/07 12:17:21;;;;;;;3.78;1.67;;;26.10;99.90;;;;;;5042855;28;20228;-48
2022/09/07 12:20:08;;;;;;;6.32;2.08;;;26.10;99.90;;;;;;5052436;28;20537;-49
2022/09/07 12:22:34;;;;;;;4.32;1.83;;;26.40;99.90;;;;;;5052275;28;20169;-49
2022/09/07 12:25:08;;;;;;;6.18;1.90;;;26.50;99.90;;;;;;5052700;28;20166;-50
2022/09/07 12:27:34;;;;;;;2.45;1.95;;;26.30;99.90;;;;;;5052586;28;20220;-49
2022/09/07 12:30:02;;;;;;;2.97;1.77;;;26.60;99.90;;;;;;5052485;28;20421;-50
2022/09/07 12:32:46;;;;;;;2.60;1.90;;;26.50;99.90;;;;;;5052549;28;20165;-50
2022/09/07 12:35:29;;;;;;;4.95;1.98;;;26.30;99.90;;;;;;5052295;28;20206;-48
2022/09/07 12:38:04;;;;;;;5.72;1.90;;;26.50;99.90;;;;;;5051720;28;20648;-50
2022/09/07 12:40:33;;;;;;;3.05;1.70;;;26.40;99.90;;;;;;5052727;28;20161;-50
2022/09/07 12:43:13;;;;;;;5.38;1.75;;;26.20;99.90;;;;;;5052421;28;20711;-50
2022/09/07 12:45:39;;;;;;;5.07;1.58;;;26.50;99.90;;;;;;5051070;28;20166;-49
2022/09/07 12:48:14;;;;;;;3.15;1.70;;;26.60;99.90;;;;;;5051505;28;20170;-49
2022/09/07 12:50:52;;;;;;;2.60;1.50;;;26.70;99.90;;;;;;5051696;28;20189;-49
2022/09/07 12:53:34;;;;;;;3.72;1.52;;;26.80;99.90;;;;;;5051311;28;20729;-49
2022/09/07 12:56:37;;;;;;;5.65;1.85;;;26.90;99.90;;;;;;5052397;28;20166;-49
2022/09/07 12:59:37;;;;;;;4.63;1.60;;;27.10;99.90;;;;;;5051556;28;20245;-49
2022/09/07 13:02:17;;;;;;;3.15;1.40;;;26.90;99.90;;;;;;5015682;28;20181;-49
2022/09/07 13:05:19;;;;;;;3.92;1.80;;;26.60;99.90;;;;;;5051575;28;20169;-50
2022/09/07 13:07:45;;;;;;;2.30;1.45;;;26.40;99.90;;;;;;5051083;28;20569;-51
2022/09/07 13:10:32;;;;;;;4.93;1.58;;;26.50;99.90;;;;;;5051345;28;20256;-50
2022/09/07 13:13:20;;;;;;;4.78;1.40;;;26.90;99.90;;;;;;5051850;28;20220;-51